Time;durP1;ratioP1;P1;durP2;ratioP2;P2;SDS_P1;SDS_P2;PMS_P1;PMS_P2;Temp;Humidity;BMP_temperature;BMP_pressure;BME280_temperature;BME280_humidity;BME280_pressure;Samples;Min_cycle;Max_cycle;Signal;HPM_P1;HPM_P2
2022/10/12 00:01:07;;;;;;;5.90;5.60;;;;;;;;;;4998603;28;20192;-71
2022/10/12 00:03:34;;;;;;;5.85;5.55;;;;;;;;;;5000245;28;20049;-71
2022/10/12 00:06:11;;;;;;;5.65;5.40;;;;;;;;;;4998673;28;20044;-72
2022/10/12 00:08:38;;;;;;;5.60;5.40;;;;;;;;;;5000561;28;20049;-72
2022/10/12 00:11:05;;;;;;;5.47;5.28;;;;;;;;;;4998028;28;20877;-72
2022/10/12 00:13:31;;;;;;;5.60;5.40;;;;;;;;;;5002531;28;20421;-71
2022/10/12 00:15:56;;;;;;;5.60;5.40;;;;;;;;;;5001608;28;20037;-71
2022/10/12 00:18:22;;;;;;;5.85;5.55;;;;;;;;;;5003600;28;20038;-72
2022/10/12 00:20:47;;;;;;;5.40;5.20;;;;;;;;;;4999410;28;20417;-72
2022/10/12 00:23:13;;;;;;;5.47;5.28;;;;;;;;;;5002651;28;20120;-72
2022/10/12 00:25:40;;;;;;;6.00;5.70;;;;;;;;;;5000806;28;20505;-72
2022/10/12 00:28:07;;;;;;;5.53;5.32;;;;;;;;;;5001251;28;20039;-72
2022/10/12 00:30:33;;;;;;;5.82;5.53;;;;;;;;;;5000487;28;20396;-71
2022/10/12 00:32:59;;;;;;;5.53;5.32;;;;;;;;;;5000467;28;20034;-72
2022/10/12 00:35:28;;;;;;;5.90;5.60;;;;;;;;;;4999554;28;20124;-71
2022/10/12 00:37:54;;;;;;;5.43;5.22;;;;;;;;;;4999373;28;20041;-71
2022/10/12 00:40:21;;;;;;;5.40;5.20;;;;;;;;;;5000796;28;20052;-71
2022/10/12 00:42:48;;;;;;;5.55;5.35;;;;;;;;;;5000194;28;20057;-71
2022/10/12 00:45:14;;;;;;;5.45;5.25;;;;;;;;;;4997444;28;20197;-71
2022/10/12 00:47:47;;;;;;;5.30;5.10;;;;;;;;;;4997716;28;20034;-72
2022/10/12 00:50:29;;;;;;;5.75;5.45;;;;;;;;;;4998908;28;20037;-71
2022/10/12 00:53:03;;;;;;;5.45;5.25;;;;;;;;;;5001482;28;20030;-71
2022/10/12 00:55:34;;;;;;;5.80;5.50;;;;;;;;;;5002784;28;20037;-71
2022/10/12 00:58:00;;;;;;;5.70;5.40;;;;;;;;;;4999465;28;20038;-71
2022/10/12 01:00:26;;;;;;;5.88;5.57;;;;;;;;;;4999122;28;20038;-72
2022/10/12 01:02:53;;;;;;;5.50;5.30;;;;;;;;;;5000494;28;20061;-71
2022/10/12 01:05:19;;;;;;;5.50;5.30;;;;;;;;;;4999216;28;20040;-71
2022/10/12 01:07:44;;;;;;;6.05;5.75;;;;;;;;;;4998161;28;20038;-72
2022/10/12 01:10:10;;;;;;;5.57;5.38;;;;;;;;;;5001421;28;20073;-71
2022/10/12 01:12:37;;;;;;;6.10;5.80;;;;;;;;;;5002814;28;20518;-71
2022/10/12 01:15:04;;;;;;;5.85;5.55;;;;;;;;;;4997138;28;20043;-72
2022/10/12 01:17:36;;;;;;;5.35;5.15;;;;;;;;;;5003948;28;20397;-71
2022/10/12 01:20:18;;;;;;;5.20;5.00;;;;;;;;;;4998877;28;20057;-71
2022/10/12 01:23:06;;;;;;;5.82;5.53;;;;;;;;;;4998779;28;20437;-71
2022/10/12 01:25:41;;;;;;;5.78;5.47;;;;;;;;;;4999338;28;20030;-71
2022/10/12 01:28:39;;;;;;;5.40;5.20;;;;;;;;;;5000580;28;20030;-71
2022/10/12 01:31:32;;;;;;;5.80;5.50;;;;;;;;;;4999052;28;20034;-71
2022/10/12 01:34:33;;;;;;;5.53;5.32;;;;;;;;;;5000901;28;20406;-71
2022/10/12 01:37:29;;;;;;;5.40;5.20;;;;;;;;;;4970527;28;20095;-71
2022/10/12 01:39:58;;;;;;;5.82;5.53;;;;;;;;;;4998060;28;20514;-72
2022/10/12 01:42:26;;;;;;;5.23;5.03;;;;;;;;;;4997983;28;20065;-71
2022/10/12 01:45:10;;;;;;;5.63;5.38;;;;;;;;;;4999606;28;20046;-71
2022/10/12 01:47:38;;;;;;;5.88;5.57;;;;;;;;;;5002428;28;20708;-71
2022/10/12 01:50:09;;;;;;;5.50;5.30;;;;;;;;;;4998444;28;20025;-71
2022/10/12 01:52:49;;;;;;;5.50;5.30;;;;;;;;;;4999032;28;20039;-71
2022/10/12 01:55:14;;;;;;;;;;;;;;;;;;5002464;28;20036;-72
2022/10/12 01:57:42;;;;;;;5.60;5.40;;;;;;;;;;5001482;28;19917;-71
2022/10/12 02:00:14;;;;;;;5.25;5.05;;;;;;;;;;4998283;28;20045;-71
2022/10/12 02:02:57;;;;;;;5.35;5.15;;;;;;;;;;5000932;28;20034;-71
2022/10/12 02:05:47;;;;;;;5.10;4.90;;;;;;;;;;4999977;28;20057;-71
2022/10/12 02:08:18;;;;;;;5.00;4.80;;;;;;;;;;4997695;28;20037;-72
2022/10/12 02:10:57;;;;;;;5.25;5.05;;;;;;;;;;5002927;28;20069;-71
2022/10/12 02:13:26;;;;;;;5.50;5.30;;;;;;;;;;4999345;28;20104;-71
2022/10/12 02:15:52;;;;;;;5.40;5.20;;;;;;;;;;5002198;28;20052;-71
2022/10/12 02:18:21;;;;;;;5.40;5.20;;;;;;;;;;4998767;28;20034;-71
2022/10/12 02:20:51;;;;;;;5.18;4.97;;;;;;;;;;4997742;28;20116;-71
2022/10/12 02:23:20;;;;;;;5.50;5.28;;;;;;;;;;4996129;28;20113;-71
2022/10/12 02:25:46;;;;;;;5.35;5.15;;;;;;;;;;5000228;28;20058;-71
2022/10/12 02:28:15;;;;;;;6.07;5.68;;;;;;;;;;4995734;28;20038;-71
2022/10/12 02:30:47;;;;;;;5.50;5.30;;;;;;;;;;4996279;28;20034;-71
2022/10/12 02:33:22;;;;;;;5.40;5.20;;;;;;;;;;4998709;28;20041;-71
2022/10/12 02:36:10;;;;;;;5.10;4.90;;;;;;;;;;4998281;28;20084;-71
2022/10/12 02:38:41;;;;;;;5.55;5.35;;;;;;;;;;4999730;28;20451;-71
2022/10/12 02:41:15;;;;;;;5.20;5.00;;;;;;;;;;4989792;28;20064;-71
2022/10/12 02:43:45;;;;;;;5.32;5.13;;;;;;;;;;4993427;28;20406;-71
2022/10/12 02:46:12;;;;;;;5.10;4.90;;;;;;;;;;4995691;28;20391;-71
2022/10/12 02:48:39;;;;;;;5.18;4.97;;;;;;;;;;4999219;28;20041;-71
2022/10/12 02:51:07;;;;;;;5.32;5.13;;;;;;;;;;4998860;28;20459;-71
2022/10/12 02:53:33;;;;;;;5.13;4.93;;;;;;;;;;4994173;28;20053;-71
2022/10/12 02:56:09;;;;;;;5.53;5.30;;;;;;;;;;5003317;28;20042;-71
2022/10/12 02:58:34;;;;;;;5.00;4.80;;;;;;;;;;4997297;28;20117;-71
2022/10/12 03:01:00;;;;;;;5.10;4.90;;;;;;;;;;5002173;28;20120;-71
2022/10/12 03:03:25;;;;;;;5.40;5.20;;;;;;;;;;4997830;28;20038;-71
2022/10/12 03:05:51;;;;;;;5.38;5.18;;;;;;;;;;4996523;28;20041;-71
2022/10/12 03:08:17;;;;;;;6.03;5.72;;;;;;;;;;4995184;28;20042;-71
2022/10/12 03:10:42;;;;;;;5.30;5.10;;;;;;;;;;5003777;28;20529;-71
2022/10/12 03:13:08;;;;;;;5.18;4.97;;;;;;;;;;5001690;28;20034;-71
2022/10/12 03:15:33;;;;;;;5.20;5.00;;;;;;;;;;5007555;28;20026;-71
2022/10/12 03:17:59;;;;;;;5.50;5.30;;;;;;;;;;5005883;28;20034;-71
2022/10/12 03:20:24;;;;;;;5.40;5.20;;;;;;;;;;5005641;28;20116;-71
2022/10/12 03:22:50;;;;;;;5.50;5.30;;;;;;;;;;5002814;28;20029;-71
2022/10/12 03:25:16;;;;;;;5.40;5.20;;;;;;;;;;5004724;28;20046;-71
2022/10/12 03:27:41;;;;;;;5.57;5.35;;;;;;;;;;4998810;28;20037;-71
2022/10/12 03:30:10;;;;;;;5.40;5.20;;;;;;;;;;5006744;28;20521;-71
2022/10/12 03:32:36;;;;;;;5.10;4.90;;;;;;;;;;5001527;28;20109;-71
2022/10/12 03:35:02;;;;;;;5.47;5.28;;;;;;;;;;5001794;28;20121;-71
2022/10/12 03:37:28;;;;;;;5.30;5.10;;;;;;;;;;5004692;28;20671;-71
2022/10/12 03:39:54;;;;;;;5.60;5.40;;;;;;;;;;5015036;28;20052;-69
2022/10/12 03:42:19;;;;;;;5.53;5.32;;;;;;;;;;5003092;28;20042;-72
2022/10/12 03:44:45;;;;;;;5.22;5.03;;;;;;;;;;5003906;28;20022;-72
2022/10/12 03:47:10;;;;;;;5.32;5.13;;;;;;;;;;5005649;28;20069;-71
2022/10/12 03:49:36;;;;;;;5.30;5.10;;;;;;;;;;5007786;28;20097;-70
2022/10/12 03:52:01;;;;;;;5.80;5.50;;;;;;;;;;5007462;28;20496;-71
2022/10/12 03:54:27;;;;;;;5.80;5.50;;;;;;;;;;5002473;28;20033;-70
2022/10/12 03:56:52;;;;;;;5.97;5.68;;;;;;;;;;5007374;28;20042;-71
2022/10/12 03:59:18;;;;;;;5.40;5.20;;;;;;;;;;5002744;28;20237;-72
2022/10/12 04:01:43;;;;;;;6.15;5.85;;;;;;;;;;5005094;28;20034;-72
2022/10/12 04:04:09;;;;;;;5.70;5.40;;;;;;;;;;5005075;28;20110;-71
2022/10/12 04:06:35;;;;;;;6.07;5.78;;;;;;;;;;5005025;28;20108;-72
2022/10/12 04:09:01;;;;;;;5.90;5.60;;;;;;;;;;5004664;28;20112;-71
2022/10/12 04:11:26;;;;;;;6.00;5.70;;;;;;;;;;5002305;28;20037;-71
2022/10/12 04:13:52;;;;;;;5.88;5.57;;;;;;;;;;5006926;28;20038;-71
2022/10/12 04:16:17;;;;;;;5.93;5.63;;;;;;;;;;5006237;28;20624;-70
2022/10/12 04:18:43;;;;;;;6.03;5.72;;;;;;;;;;5006065;28;20133;-71
2022/10/12 04:21:13;;;;;;;6.20;5.90;;;;;;;;;;5001902;28;20096;-70
2022/10/12 04:23:39;;;;;;;6.07;5.78;;;;;;;;;;5007108;28;20040;-71
2022/10/12 04:26:06;;;;;;;6.03;5.72;;;;;;;;;;5005439;28;20037;-71
2022/10/12 04:28:31;;;;;;;6.03;5.72;;;;;;;;;;5010223;28;20049;-70
2022/10/12 04:30:57;;;;;;;5.90;5.60;;;;;;;;;;5001853;28;20034;-72
2022/10/12 04:33:22;;;;;;;6.10;5.80;;;;;;;;;;5003163;28;20042;-69
2022/10/12 04:35:48;;;;;;;6.10;5.80;;;;;;;;;;5005204;28;20650;-71
2022/10/12 04:38:14;;;;;;;6.30;6.00;;;;;;;;;;5002762;28;20037;-69
2022/10/12 04:40:39;;;;;;;6.13;5.82;;;;;;;;;;5004262;28;20046;-72
2022/10/12 04:43:05;;;;;;;6.10;5.80;;;;;;;;;;4998523;28;20481;-70
2022/10/12 04:45:30;;;;;;;6.20;5.90;;;;;;;;;;5003239;28;20513;-72
2022/10/12 04:47:56;;;;;;;6.28;5.97;;;;;;;;;;5003047;28;20511;-70
2022/10/12 04:50:22;;;;;;;6.10;5.80;;;;;;;;;;5001811;28;20117;-72
2022/10/12 04:52:47;;;;;;;6.15;5.85;;;;;;;;;;5001202;28;20037;-72
2022/10/12 04:55:13;;;;;;;6.05;5.75;;;;;;;;;;4999558;28;20465;-71
2022/10/12 04:57:39;;;;;;;5.82;5.53;;;;;;;;;;5001646;28;20034;-71
2022/10/12 05:00:06;;;;;;;6.00;5.70;;;;;;;;;;5003259;28;20085;-70
2022/10/12 05:02:32;;;;;;;6.10;5.80;;;;;;;;;;4998688;28;20042;-71
2022/10/12 05:04:57;;;;;;;6.30;6.00;;;;;;;;;;5003671;28;20397;-72
2022/10/12 05:07:23;;;;;;;5.90;5.60;;;;;;;;;;5001327;28;20061;-71
2022/10/12 05:09:49;;;;;;;6.10;5.80;;;;;;;;;;5007282;28;20037;-70
2022/10/12 05:12:14;;;;;;;6.05;5.75;;;;;;;;;;4996828;28;20038;-71
2022/10/12 05:14:40;;;;;;;6.28;5.97;;;;;;;;;;5004606;28;20547;-72
2022/10/12 05:17:05;;;;;;;6.50;6.20;;;;;;;;;;4996803;28;20084;-70
2022/10/12 05:19:31;;;;;;;6.20;5.90;;;;;;;;;;5007593;28;20561;-70
2022/10/12 05:21:56;;;;;;;5.80;5.50;;;;;;;;;;5005903;28;20066;-72
2022/10/12 05:24:22;;;;;;;6.30;6.00;;;;;;;;;;5013348;28;20513;-72
2022/10/12 05:26:47;;;;;;;6.15;5.85;;;;;;;;;;5009283;28;20084;-70
2022/10/12 05:29:13;;;;;;;5.95;5.65;;;;;;;;;;5009215;28;20034;-72
2022/10/12 05:31:38;;;;;;;5.97;5.68;;;;;;;;;;5012901;28;20049;-71
2022/10/12 05:34:04;;;;;;;6.05;5.75;;;;;;;;;;5011898;28;20040;-71
2022/10/12 05:36:30;;;;;;;5.90;5.60;;;;;;;;;;5006083;28;20117;-70
2022/10/12 05:38:55;;;;;;;6.10;5.80;;;;;;;;;;5012848;28;20069;-70
2022/10/12 05:41:21;;;;;;;6.00;5.70;;;;;;;;;;5007157;28;20057;-70
2022/10/12 05:43:46;;;;;;;6.00;5.70;;;;;;;;;;5013219;28;20060;-70
2022/10/12 05:46:12;;;;;;;6.30;6.00;;;;;;;;;;5009823;28;20032;-69
2022/10/12 05:48:37;;;;;;;6.40;6.10;;;;;;;;;;5011835;28;20034;-70
2022/10/12 05:51:03;;;;;;;6.00;5.70;;;;;;;;;;5011350;28;20034;-70
2022/10/12 05:53:29;;;;;;;6.15;5.85;;;;;;;;;;5012185;28;20026;-69
2022/10/12 05:55:59;;;;;;;6.15;5.85;;;;;;;;;;5010257;28;20030;-69
2022/10/12 05:58:27;;;;;;;6.43;6.13;;;;;;;;;;5005201;28;20065;-70
2022/10/12 06:00:53;;;;;;;6.18;5.88;;;;;;;;;;5005364;28;20046;-69
2022/10/12 06:03:20;;;;;;;6.22;5.93;;;;;;;;;;5005415;28;20062;-70
2022/10/12 06:05:46;;;;;;;6.00;5.70;;;;;;;;;;5005134;28;20061;-71
2022/10/12 06:08:12;;;;;;;5.90;5.60;;;;;;;;;;5008692;28;20053;-70
2022/10/12 06:10:44;;;;;;;6.22;5.93;;;;;;;;;;5003102;28;20402;-71
2022/10/12 06:13:10;;;;;;;5.90;5.60;;;;;;;;;;5007825;28;20034;-70
2022/10/12 06:15:35;;;;;;;6.38;6.07;;;;;;;;;;5006479;28;20030;-69
2022/10/12 06:18:01;;;;;;;6.07;5.78;;;;;;;;;;5004178;28;20030;-69
2022/10/12 06:20:27;;;;;;;6.30;6.00;;;;;;;;;;4987547;28;20121;-70
2022/10/12 06:22:52;;;;;;;6.30;6.00;;;;;;;;;;5008160;28;20022;-72
2022/10/12 06:25:18;;;;;;;6.35;6.05;;;;;;;;;;5011012;28;20034;-70
2022/10/12 06:27:44;;;;;;;6.40;6.10;;;;;;;;;;5004626;28;20041;-68
2022/10/12 06:30:12;;;;;;;6.28;5.97;;;;;;;;;;5010105;28;20058;-69
2022/10/12 06:32:37;;;;;;;6.30;6.00;;;;;;;;;;5008962;28;20042;-70
2022/10/12 06:35:03;;;;;;;6.20;5.90;;;;;;;;;;5000401;28;20053;-70
2022/10/12 06:37:29;;;;;;;6.00;5.70;;;;;;;;;;5013483;28;20598;-71
2022/10/12 06:39:55;;;;;;;6.20;5.90;;;;;;;;;;5008795;28;20030;-70
2022/10/12 06:42:20;;;;;;;6.20;5.90;;;;;;;;;;5001810;28;20029;-70
2022/10/12 06:44:48;;;;;;;6.00;5.70;;;;;;;;;;5004075;28;20036;-68
2022/10/12 06:47:14;;;;;;;6.10;5.80;;;;;;;;;;5004828;28;20056;-69
2022/10/12 06:49:40;;;;;;;6.43;6.13;;;;;;;;;;5003010;28;20030;-71
2022/10/12 06:52:05;;;;;;;6.13;5.82;;;;;;;;;;5003104;28;20085;-71
2022/10/12 06:54:31;;;;;;;6.18;5.88;;;;;;;;;;5005001;28;20473;-69
2022/10/12 06:56:56;;;;;;;6.30;6.00;;;;;;;;;;5001206;28;20041;-69
2022/10/12 06:59:22;;;;;;;6.65;6.35;;;;;;;;;;5001876;28;20728;-71
2022/10/12 07:01:49;;;;;;;6.70;6.40;;;;;;;;;;5001569;28;20498;-71
2022/10/12 07:04:16;;;;;;;6.80;6.50;;;;;;;;;;4998532;28;20114;-71
2022/10/12 07:06:42;;;;;;;7.00;6.60;;;;;;;;;;5000364;28;20084;-70
2022/10/12 07:09:08;;;;;;;6.57;6.28;;;;;;;;;;5002312;28;20446;-70
2022/10/12 07:11:33;;;;;;;6.05;5.75;;;;;;;;;;5001855;28;20053;-71
2022/10/12 07:13:59;;;;;;;6.40;6.10;;;;;;;;;;5004790;28;20177;-69
2022/10/12 07:16:24;;;;;;;6.50;6.20;;;;;;;;;;5002296;28;20627;-71
2022/10/12 07:18:50;;;;;;;6.53;6.22;;;;;;;;;;5001270;28;20038;-71
2022/10/12 07:21:16;;;;;;;5.80;5.50;;;;;;;;;;4995774;28;20438;-71
2022/10/12 07:23:42;;;;;;;6.10;5.80;;;;;;;;;;4996670;28;20041;-69
2022/10/12 07:26:08;;;;;;;6.00;5.70;;;;;;;;;;5000573;28;20044;-71
2022/10/12 07:28:35;;;;;;;6.18;5.88;;;;;;;;;;5001887;28;20040;-70
2022/10/12 07:31:03;;;;;;;6.75;6.45;;;;;;;;;;4998754;28;20498;-70
2022/10/12 07:33:37;;;;;;;6.30;6.00;;;;;;;;;;4998541;28;20035;-70
2022/10/12 07:36:04;;;;;;;6.70;6.40;;;;;;;;;;4995416;28;20045;-70
2022/10/12 07:38:30;;;;;;;6.40;6.10;;;;;;;;;;5000305;28;20376;-69
2022/10/12 07:41:03;;;;;;;6.50;6.20;;;;;;;;;;5001981;28;20048;-70
2022/10/12 07:43:29;;;;;;;6.68;6.38;;;;;;;;;;5001012;28;20034;-71
2022/10/12 07:45:55;;;;;;;6.60;6.30;;;;;;;;;;5001232;28;20034;-70
2022/10/12 07:48:22;;;;;;;6.47;6.18;;;;;;;;;;4999429;28;20034;-70
2022/10/12 07:50:47;;;;;;;7.40;6.90;;;;;;;;;;4995957;28;20022;-71
2022/10/12 07:53:13;;;;;;;6.85;6.55;;;;;;;;;;5002634;28;20044;-71
2022/10/12 07:55:38;;;;;;;6.80;6.50;;;;;;;;;;4999219;28;20542;-69
2022/10/12 07:58:04;;;;;;;6.30;6.00;;;;;;;;;;5002767;28;20423;-71
2022/10/12 08:00:31;;;;;;;6.90;6.60;;;;;;;;;;5000093;28;20112;-71
2022/10/12 08:02:56;;;;;;;6.75;6.45;;;;;;;;;;5002797;28;20120;-71
2022/10/12 08:05:22;;;;;;;6.38;6.07;;;;;;;;;;5001487;28;20363;-69
2022/10/12 08:07:49;;;;;;;6.45;6.15;;;;;;;;;;5002176;28;20064;-70
2022/10/12 08:10:16;;;;;;;6.70;6.40;;;;;;;;;;5004441;28;20425;-70
2022/10/12 08:12:43;;;;;;;6.78;6.47;;;;;;;;;;5004013;28;20044;-71
2022/10/12 08:15:10;;;;;;;6.70;6.40;;;;;;;;;;5003253;28;20034;-72
2022/10/12 08:17:36;;;;;;;6.50;6.20;;;;;;;;;;5004280;28;20116;-71
2022/10/12 08:20:02;;;;;;;7.30;6.93;;;;;;;;;;5001072;28;20684;-70
2022/10/12 08:22:28;;;;;;;6.50;6.20;;;;;;;;;;5001491;28;20093;-72
2022/10/12 08:24:54;;;;;;;6.40;6.10;;;;;;;;;;5002743;28;20034;-71
2022/10/12 08:27:19;;;;;;;6.60;6.30;;;;;;;;;;5003981;28;20462;-70
2022/10/12 08:29:45;;;;;;;6.35;6.05;;;;;;;;;;5010104;28;20068;-71
2022/10/12 08:32:11;;;;;;;6.55;6.25;;;;;;;;;;5002105;28;20402;-71
2022/10/12 08:34:37;;;;;;;6.60;6.30;;;;;;;;;;5000818;28;20034;-70
2022/10/12 08:37:02;;;;;;;7.15;6.75;;;;;;;;;;5000846;28;20041;-71
2022/10/12 08:39:28;;;;;;;7.13;6.82;;;;;;;;;;5006685;28;20031;-69
2022/10/12 08:42:00;;;;;;;6.78;6.47;;;;;;;;;;5004685;28;20035;-70
2022/10/12 08:45:16;;;;;;;6.78;6.47;;;;;;;;;;5000700;28;20033;-70
2022/10/12 08:47:50;;;;;;;6.70;6.40;;;;;;;;;;4948477;29;20050;-70
2022/10/12 08:50:27;;;;;;;6.75;6.45;;;;;;;;;;4948519;28;20035;-70
2022/10/12 08:53:00;;;;;;;6.68;6.38;;;;;;;;;;4946937;29;20051;-70
2022/10/12 08:55:41;;;;;;;6.40;6.10;;;;;;;;;;4949159;28;20130;-71
2022/10/12 08:58:15;;;;;;;6.65;6.35;;;;;;;;;;4952407;28;20043;-69
2022/10/12 09:00:42;;;;;;;6.63;6.32;;;;;;;;;;4932593;29;20540;-70
2022/10/12 09:03:19;;;;;;;6.78;6.47;;;;;;;;;;4948139;28;20571;-70
2022/10/12 09:06:06;;;;;;;7.78;7.18;;;;;;;;;;4945297;28;20050;-69
2022/10/12 09:08:44;;;;;;;6.43;6.13;;;;;;;;;;4948940;28;20047;-67
2022/10/12 09:11:21;;;;;;;6.60;6.30;;;;;;;;;;4940021;29;20272;-70
2022/10/12 09:14:05;;;;;;;6.88;6.57;;;;;;;;;;4946405;28;20051;-69
2022/10/12 09:16:35;;;;;;;8.52;7.97;;;;;;;;;;4943089;28;20515;-71
2022/10/12 09:19:09;;;;;;;6.68;6.38;;;;;;;;;;4945022;28;20035;-71
2022/10/12 09:21:35;;;;;;;6.68;6.38;;;;;;;;;;4968988;28;20607;-71
2022/10/12 09:24:03;;;;;;;6.50;6.20;;;;;;;;;;5004861;28;20040;-69
2022/10/12 09:26:34;;;;;;;6.45;6.15;;;;;;;;;;4999126;28;20123;-71
2022/10/12 09:29:01;;;;;;;6.30;6.00;;;;;;;;;;5005434;28;20038;-70
2022/10/12 09:31:37;;;;;;;6.60;6.30;;;;;;;;;;5007346;28;20037;-71
2022/10/12 09:34:05;;;;;;;6.40;6.10;;;;;;;;;;5001003;28;20052;-69
2022/10/12 09:36:35;;;;;;;6.50;6.20;;;;;;;;;;5000686;28;20395;-69
2022/10/12 09:39:04;;;;;;;6.25;5.95;;;;;;;;;;5013373;28;20025;-69
2022/10/12 09:41:37;;;;;;;7.28;6.95;;;;;;;;;;5004186;28;20096;-71
2022/10/12 09:44:05;;;;;;;6.50;6.20;;;;;;;;;;5001926;28;20033;-70
2022/10/12 09:46:38;;;;;;;6.45;6.15;;;;;;;;;;5006451;28;20041;-70
2022/10/12 09:49:04;;;;;;;6.30;6.00;;;;;;;;;;4996854;28;20038;-69
2022/10/12 09:51:30;;;;;;;6.50;6.20;;;;;;;;;;5002534;28;20034;-71
2022/10/12 09:54:02;;;;;;;6.60;6.25;;;;;;;;;;4997826;28;20030;-71
2022/10/12 09:56:43;;;;;;;6.30;6.00;;;;;;;;;;5001179;28;20036;-70
2022/10/12 09:59:38;;;;;;;6.53;6.22;;;;;;;;;;4998483;28;20044;-69
2022/10/12 10:02:10;;;;;;;6.43;6.13;;;;;;;;;;4998661;28;20034;-70
2022/10/12 10:04:37;;;;;;;6.50;6.20;;;;;;;;;;5001182;28;20061;-71
2022/10/12 10:07:19;;;;;;;6.82;6.53;;;;;;;;;;4999937;28;20037;-70
2022/10/12 10:09:45;;;;;;;6.43;6.13;;;;;;;;;;4998696;28;20034;-68
2022/10/12 10:12:26;;;;;;;5.97;5.68;;;;;;;;;;5000992;28;20461;-70
2022/10/12 10:14:55;;;;;;;6.60;6.30;;;;;;;;;;5003365;28;20041;-71
2022/10/12 10:17:27;;;;;;;6.22;5.93;;;;;;;;;;5002704;28;20030;-70
2022/10/12 10:19:55;;;;;;;7.10;6.70;;;;;;;;;;5001910;28;20041;-71
2022/10/12 10:22:21;;;;;;;6.43;6.13;;;;;;;;;;4997780;28;20034;-70
2022/10/12 10:24:56;;;;;;;6.93;6.63;;;;;;;;;;5002892;28;20021;-69
2022/10/12 10:27:30;;;;;;;6.20;5.90;;;;;;;;;;5002050;28;20034;-70
2022/10/12 10:30:14;;;;;;;6.68;6.38;;;;;;;;;;5005832;28;20056;-70
2022/10/12 10:32:40;;;;;;;6.90;6.40;;;;;;;;;;4999511;28;20038;-70
2022/10/12 10:35:26;;;;;;;6.22;5.93;;;;;;;;;;4999789;28;20026;-71
2022/10/12 10:37:55;;;;;;;6.60;6.30;;;;;;;;;;5000828;28;20041;-70
2022/10/12 10:40:29;;;;;;;6.38;6.07;;;;;;;;;;4997026;28;20084;-69
2022/10/12 10:43:03;;;;;;;6.28;5.97;;;;;;;;;;4996456;28;20124;-71
2022/10/12 10:45:32;;;;;;;6.40;6.10;;;;;;;;;;5002828;28;20033;-70
2022/10/12 10:48:04;;;;;;;;;;;;;;;;;;4997332;28;20034;-68
2022/10/12 10:50:37;;;;;;;6.20;5.90;;;;;;;;;;4999247;28;19917;-69
2022/10/12 10:53:12;;;;;;;6.30;6.00;;;;;;;;;;4997407;28;20044;-71
2022/10/12 10:55:40;;;;;;;6.20;5.90;;;;;;;;;;5002060;28;20117;-71
2022/10/12 10:58:29;;;;;;;6.28;5.97;;;;;;;;;;4998811;28;20034;-70
2022/10/12 11:01:00;;;;;;;6.30;6.00;;;;;;;;;;4993190;28;20101;-69
2022/10/12 11:03:53;;;;;;;5.50;5.30;;;;;;;;;;5000763;28;20052;-71
2022/10/12 11:06:31;;;;;;;6.35;6.05;;;;;;;;;;5017802;28;20109;-72
2022/10/12 11:09:12;;;;;;;6.10;5.80;;;;;;;;;;4998063;28;20030;-71
2022/10/12 11:11:39;;;;;;;6.03;5.72;;;;;;;;;;4996536;28;20096;-71
2022/10/12 11:14:14;;;;;;;6.05;5.75;;;;;;;;;;5002706;28;20514;-70
2022/10/12 11:16:47;;;;;;;6.03;5.72;;;;;;;;;;4998561;28;20030;-71
2022/10/12 11:19:29;;;;;;;6.20;5.90;;;;;;;;;;4995724;28;20510;-69
2022/10/12 11:22:09;;;;;;;6.20;5.90;;;;;;;;;;5002591;28;20073;-70
2022/10/12 11:24:44;;;;;;;6.60;6.30;;;;;;;;;;4994660;28;20633;-71
2022/10/12 11:27:28;;;;;;;6.60;6.30;;;;;;;;;;5001289;28;20038;-70
2022/10/12 11:30:00;;;;;;;6.20;5.90;;;;;;;;;;4999383;28;20045;-71
2022/10/12 11:32:37;;;;;;;6.53;6.22;;;;;;;;;;5001089;28;20025;-70
2022/10/12 11:35:05;;;;;;;6.55;6.25;;;;;;;;;;5001400;28;20038;-71
2022/10/12 11:37:41;;;;;;;6.47;6.17;;;;;;;;;;5024410;28;20069;-71
2022/10/12 11:40:20;;;;;;;6.30;6.00;;;;;;;;;;5004800;28;20030;-71
2022/10/12 11:42:47;;;;;;;6.40;6.10;;;;;;;;;;5001533;28;20033;-70
2022/10/12 11:45:20;;;;;;;6.32;6.03;;;;;;;;;;4999331;28;20134;-71
2022/10/12 11:47:52;;;;;;;6.45;6.15;;;;;;;;;;4998267;28;20083;-70
2022/10/12 11:50:24;;;;;;;6.57;6.28;;;;;;;;;;4999749;28;20116;-68
2022/10/12 11:52:52;;;;;;;6.82;6.53;;;;;;;;;;5005523;28;20037;-71
2022/10/12 11:55:45;;;;;;;6.50;6.20;;;;;;;;;;5002196;28;20465;-71
2022/10/12 11:58:20;;;;;;;6.30;6.00;;;;;;;;;;5007192;28;20030;-70
2022/10/12 12:01:05;;;;;;;6.30;6.00;;;;;;;;;;5010125;28;20042;-71
2022/10/12 12:03:57;;;;;;;6.20;5.90;;;;;;;;;;5006140;28;20489;-71
2022/10/12 12:06:29;;;;;;;6.60;6.30;;;;;;;;;;5001499;28;20029;-69
2022/10/12 12:08:55;;;;;;;6.40;6.10;;;;;;;;;;5007979;28;20121;-70
2022/10/12 12:11:27;;;;;;;6.30;6.00;;;;;;;;;;5010750;28;20128;-71
2022/10/12 12:14:24;;;;;;;6.28;5.97;;;;;;;;;;5002659;28;20298;-69
2022/10/12 12:17:13;;;;;;;6.00;5.70;;;;;;;;;;5001805;28;20038;-70
2022/10/12 12:19:43;;;;;;;6.00;5.70;;;;;;;;;;5007828;28;20041;-71
2022/10/12 12:22:30;;;;;;;5.80;5.50;;;;;;;;;;5007996;28;20060;-71
2022/10/12 12:25:03;;;;;;;5.93;5.63;;;;;;;;;;5005843;28;20322;-70
2022/10/12 12:27:35;;;;;;;6.00;5.70;;;;;;;;;;5000416;28;20440;-71
2022/10/12 12:30:20;;;;;;;6.30;6.00;;;;;;;;;;5004514;28;20038;-70
2022/10/12 12:33:27;;;;;;;5.95;5.65;;;;;;;;;;5007413;28;20038;-71
2022/10/12 12:35:55;;;;;;;6.18;5.88;;;;;;;;;;4936909;28;20102;-71
2022/10/12 12:38:44;;;;;;;6.10;5.80;;;;;;;;;;4945016;29;20086;-72
2022/10/12 12:41:15;;;;;;;5.93;5.63;;;;;;;;;;4934128;28;20050;-71
2022/10/12 12:43:44;;;;;;;5.90;5.60;;;;;;;;;;4936010;28;20043;-70
2022/10/12 12:46:12;;;;;;;5.80;5.50;;;;;;;;;;4943249;29;20492;-71
2022/10/12 12:48:37;;;;;;;5.80;5.50;;;;;;;;;;4943980;28;20046;-70
2022/10/12 12:51:08;;;;;;;5.80;5.50;;;;;;;;;;4942602;28;20043;-70
2022/10/12 12:53:37;;;;;;;5.97;5.68;;;;;;;;;;4940088;29;20055;-70
2022/10/12 12:56:19;;;;;;;6.32;6.03;;;;;;;;;;4945407;28;20055;-70
2022/10/12 12:59:26;;;;;;;6.00;5.70;;;;;;;;;;4945946;28;20126;-71
2022/10/12 13:02:19;;;;;;;5.93;5.63;;;;;;;;;;4894200;29;20449;-71
2022/10/12 13:05:08;;;;;;;6.28;5.97;;;;;;;;;;4943739;28;20090;-71
2022/10/12 13:07:52;;;;;;;6.00;5.70;;;;;;;;;;4999279;28;20053;-71
2022/10/12 13:10:27;;;;;;;6.30;6.00;;;;;;;;;;5006559;28;20550;-72
2022/10/12 13:13:01;;;;;;;6.40;6.10;;;;;;;;;;5005624;28;20092;-71
2022/10/12 13:15:41;;;;;;;6.50;6.20;;;;;;;;;;4997610;28;20041;-71
2022/10/12 13:18:41;;;;;;;6.00;5.70;;;;;;;;;;5006224;28;20037;-72
2022/10/12 13:21:14;;;;;;;6.18;5.88;;;;;;;;;;4999759;28;20383;-71
2022/10/12 13:23:42;;;;;;;5.85;5.55;;;;;;;;;;5008941;28;20061;-71
2022/10/12 13:26:09;;;;;;;6.20;5.90;;;;;;;;;;5007207;28;20121;-71
2022/10/12 13:28:39;;;;;;;6.40;6.10;;;;;;;;;;5003931;28;20522;-71
2022/10/12 13:31:24;;;;;;;6.40;6.10;;;;;;;;;;5001299;28;20456;-71
2022/10/12 13:33:58;;;;;;;6.63;6.32;;;;;;;;;;5003275;28;20113;-72
2022/10/12 13:36:27;;;;;;;6.40;6.10;;;;;;;;;;5000664;28;20115;-72
2022/10/12 13:39:06;;;;;;;7.07;6.68;;;;;;;;;;5000850;28;21012;-72
2022/10/12 13:41:33;;;;;;;6.40;6.10;;;;;;;;;;5005503;28;20072;-72
2022/10/12 13:44:02;;;;;;;6.82;6.53;;;;;;;;;;5009247;28;20478;-71
2022/10/12 13:46:39;;;;;;;6.40;6.10;;;;;;;;;;5004912;28;20500;-71
2022/10/12 13:49:28;;;;;;;6.30;6.00;;;;;;;;;;5027711;28;20403;-70
2022/10/12 13:51:56;;;;;;;6.40;6.10;;;;;;;;;;4998651;28;20169;-72
2022/10/12 13:54:23;;;;;;;6.00;5.70;;;;;;;;;;4998179;28;20803;-71
2022/10/12 13:56:57;;;;;;;6.50;6.20;;;;;;;;;;4999588;28;20070;-70
2022/10/12 13:59:25;;;;;;;6.20;5.90;;;;;;;;;;5005890;28;20042;-71
2022/10/12 14:01:54;;;;;;;5.82;5.53;;;;;;;;;;5005754;28;20083;-71
2022/10/12 14:04:20;;;;;;;6.10;5.80;;;;;;;;;;5005037;28;20050;-70
2022/10/12 14:06:48;;;;;;;6.03;5.72;;;;;;;;;;5001550;28;20524;-71
2022/10/12 14:09:19;;;;;;;6.20;5.90;;;;;;;;;;4996213;28;20042;-70
2022/10/12 14:11:46;;;;;;;6.40;6.10;;;;;;;;;;4997166;28;20042;-72
2022/10/12 14:14:19;;;;;;;6.30;6.00;;;;;;;;;;4995919;28;20046;-71
2022/10/12 14:16:45;;;;;;;6.22;5.93;;;;;;;;;;4998171;28;20053;-70
2022/10/12 14:19:31;;;;;;;6.55;6.25;;;;;;;;;;4999647;28;20030;-70
2022/10/12 14:21:58;;;;;;;6.22;5.93;;;;;;;;;;5002924;28;20410;-71
2022/10/12 14:24:24;;;;;;;6.07;5.78;;;;;;;;;;5001372;28;20102;-71
2022/10/12 14:27:02;;;;;;;5.80;5.50;;;;;;;;;;5000669;28;20121;-70
2022/10/12 14:29:40;;;;;;;6.00;5.70;;;;;;;;;;5001780;28;20080;-71
2022/10/12 14:32:08;;;;;;;5.95;5.65;;;;;;;;;;5005239;28;20029;-71
2022/10/12 14:34:43;;;;;;;6.20;5.90;;;;;;;;;;5000765;28;20733;-70
2022/10/12 14:37:11;;;;;;;6.43;6.13;;;;;;;;;;4997860;28;20045;-70
2022/10/12 14:39:39;;;;;;;6.20;5.90;;;;;;;;;;5000313;28;20037;-70
2022/10/12 14:42:21;;;;;;;5.70;5.40;;;;;;;;;;5002205;28;20061;-71
2022/10/12 14:44:48;;;;;;;5.80;5.50;;;;;;;;;;5001039;28;20613;-72
2022/10/12 14:47:19;;;;;;;5.90;5.60;;;;;;;;;;5003411;28;20045;-71
2022/10/12 14:49:47;;;;;;;5.93;5.63;;;;;;;;;;5004996;28;20048;-71
2022/10/12 14:52:35;;;;;;;6.00;5.70;;;;;;;;;;4999959;28;20097;-70
2022/10/12 14:55:00;;;;;;;6.20;5.90;;;;;;;;;;5000603;28;20121;-71
2022/10/12 14:57:29;;;;;;;5.90;5.60;;;;;;;;;;5001371;28;20116;-69
2022/10/12 14:59:55;;;;;;;7.40;6.90;;;;;;;;;;4998131;28;20061;-71
2022/10/12 15:02:24;;;;;;;6.10;5.80;;;;;;;;;;4993548;28;20064;-71
2022/10/12 15:04:50;;;;;;;;;;;;;;;;;;5000527;28;20034;-70